Pond Inlet Airport
CYIO : rendu visible

Aérodrome :











RETROUVEZ-NOUS SUR...

 
LOGIN :

S'inscrire | Disclaimer

   EN    FR    IT 

 









Légende :    VFR   VFR Marginal   IFR   IFR Intensif   IFR Très Intensif
Visi : 
Plafond : 
>= 8 km
>= 3000ft
5 à 8 km
1000 à 3000 ft
1500m à 5 km
500 à 1000 ft
800 à 1500m
200 à 500 ft
< 800m
< 200 ft
Symboles :   Orages  Brouillard  Fortes neiges  Fortes précipitations  Vent > 20 kt






- Altitude de l'aérodrome : 181 ft
- Code IATA : YIO


CYIO - Pond Inlet

DERNIER METAR :
  • 151000Z AUTO 09011KT 9SM OVC085 M17/M25 A2965 RMK SLP051

METARs EXPIRÉS :
  • 150900Z AUTO 10011G16KT 9SM BKN085 M18/M26 A2963 RMK SLP046
  • 150800Z AUTO 10013KT 9SM CLR M17/M26 A2961 RMK SLP039
  • 150700Z AUTO 07009KT 9SM CLR M19/M25 A2960 RMK SLP034

TAF TAF CYIO
Valide du 15 à 07h jusqu'au 15 à 19h UTC


150638Z 1507/1519 08007KT P6SM FEW050 SCT100
TEMPO 1507/1519 5SM IC SCT050 BKN100
BECMG 1511/1513 12008KT RMK FCST BASED ON AUTO OBS. NXT FCST BY 151300Z



MET'MAP, la Météo Aéronautique d'un coup d'oeil ! - Copyright ORBIFLY Décembre 2007 - Disclaimer

ORBIFLY MET'MAP TEAM :

Programmation & Développement : Alexandra Zaïnal
Sur une idée originale de : Baudouin d'Aumeries
Assistance à la programmation : Marc-Olivier Méhu
Soutien technique & logistique : Manuel Goepfert

Contact : metmap@orbifly.com




SOURCES & CREDITS :

   NOAA       Earth
Advisory